Time;durP1;ratioP1;P1;durP2;ratioP2;P2;SDS_P1;SDS_P2;PMS_P1;PMS_P2;Temp;Humidity;BMP_temperature;BMP_pressure;BME280_temperature;BME280_humidity;BME280_pressure;Samples;Min_cycle;Max_cycle;Signal;HPM_P1;HPM_P2
2024/04/21 00:00:43;;;;;;;14.43;2.38;;;;;;;-146.25;100.00;52437.13;2196913;27;36241;-71
2024/04/21 00:01:45;;;;;;;12.40;2.42;;;;;;;-146.25;100.00;52475.66;2196066;27;32843;-71
2024/04/21 00:02:47;;;;;;;19.17;2.53;;;;;;;-146.25;100.00;52443.22;2196899;27;20006;-71
2024/04/21 00:03:49;;;;;;;12.13;1.75;;;;;;;-146.25;100.00;52443.22;2197002;26;31684;-72
2024/04/21 00:04:51;;;;;;;15.88;2.10;;;;;;;-146.25;100.00;52424.97;2196897;27;20019;-71
2024/04/21 00:05:53;;;;;;;9.23;1.50;;;;;;;-146.25;100.00;52447.28;2195899;26;32071;-71
2024/04/21 00:06:55;;;;;;;8.77;1.63;;;;;;;-146.25;100.00;52461.47;2183015;27;32939;-71
2024/04/21 00:07:57;;;;;;;15.55;1.77;;;;;;;-146.25;100.00;52479.72;2182911;27;20027;-72
2024/04/21 00:09:03;;;;;;;8.80;1.30;;;;;;;-146.25;100.00;52431.06;2183916;27;20026;-71
2024/04/21 00:10:06;;;;;;;12.18;1.73;;;;;;;-146.25;100.00;52506.06;2196065;27;31894;-70
2024/04/21 00:11:09;;;;;;;15.25;2.08;;;;;;;-146.25;100.00;52422.94;2195717;26;34987;-71
2024/04/21 00:12:11;;;;;;;17.45;2.08;;;;;;;-146.25;100.00;52420.91;2182951;27;29941;-70
2024/04/21 00:13:13;;;;;;;16.40;2.05;;;;;;;-146.25;100.00;52465.53;2182919;27;34102;-70
2024/04/21 00:14:15;;;;;;;15.68;2.55;;;;;;;-146.25;100.00;52402.66;2182725;27;36873;-71
2024/04/21 00:15:17;;;;;;;17.77;1.80;;;;;;;-146.25;100.00;52416.84;2182930;27;34418;-70
2024/04/21 00:16:18;;;;;;;20.10;3.35;;;;;;;-146.25;100.00;52463.50;2167887;27;35713;-71
2024/04/21 00:17:20;;;;;;;13.00;2.40;;;;;;;-146.25;100.00;52424.97;2168513;27;36888;-70
2024/04/21 00:18:27;;;;;;;17.83;2.90;;;;;;;-146.25;100.00;52447.28;2183473;27;20010;-71
2024/04/21 00:19:29;;;;;;;16.65;2.50;;;;;;;-146.25;100.00;52429.03;2182760;27;36305;-70
2024/04/21 00:20:31;;;;;;;12.68;2.15;;;;;;;-146.25;100.00;52435.09;2183073;27;26874;-70
2024/04/21 00:21:33;;;;;;;18.73;2.72;;;;;;;-146.25;100.00;52455.38;2182847;27;35910;-70
2024/04/21 00:22:35;;;;;;;14.27;2.22;;;;;;;-146.25;100.00;52437.13;2182459;27;32984;-71
2024/04/21 00:23:38;;;;;;;9.95;1.90;;;;;;;-146.25;100.00;52465.53;2196841;27;20116;-71
2024/04/21 00:24:42;;;;;;;10.77;1.52;;;;;;;-146.25;100.00;52445.25;2195485;27;33527;-71
2024/04/21 00:25:44;;;;;;;11.45;1.55;;;;;;;-146.25;100.00;52441.19;2182825;27;36229;-71
2024/04/21 00:26:46;;;;;;;10.27;2.05;;;;;;;-146.25;100.00;52441.19;2182684;27;36874;-71
2024/04/21 00:27:48;;;;;;;7.40;1.50;;;;;;;-146.25;100.00;52447.28;2183549;27;20062;-71
2024/04/21 00:28:50;;;;;;;13.10;1.90;;;;;;;-146.25;100.00;52439.16;2183023;27;29183;-70
2024/04/21 00:29:52;;;;;;;7.55;1.60;;;;;;;-146.25;100.00;52457.41;2183023;27;25391;-71
2024/04/21 00:30:54;;;;;;;15.95;2.33;;;;;;;-146.25;100.00;52435.09;2183218;27;31724;-70
2024/04/21 00:31:58;;;;;;;12.30;2.13;;;;;;;-146.25;100.00;52437.13;2182623;27;20003;-70
2024/04/21 00:33:00;;;;;;;12.77;2.10;;;;;;;-146.25;100.00;52457.41;2182040;27;31946;-71
2024/04/21 00:34:02;;;;;;;12.10;2.20;;;;;;;-146.25;100.00;52469.56;2182869;27;34044;-70
2024/04/21 00:35:04;;;;;;;10.25;1.83;;;;;;;-146.25;100.00;52459.44;2182611;27;36316;-71
2024/04/21 00:36:06;;;;;;;16.58;2.33;;;;;;;-146.25;100.00;52465.53;2187158;26;38298;-70
2024/04/21 00:37:08;;;;;;;20.15;2.75;;;;;;;-146.25;100.00;52483.78;2197462;26;20136;-71
2024/04/21 00:38:12;;;;;;;12.25;2.10;;;;;;;-146.25;100.00;52416.84;2196550;27;38535;-70
2024/04/21 00:39:14;;;;;;;10.52;2.40;;;;;;;-146.25;100.00;52418.88;2196743;27;34797;-70
2024/04/21 00:40:16;;;;;;;20.23;3.33;;;;;;;-146.25;100.00;52455.38;2196876;26;34798;-70
2024/04/21 00:41:20;;;;;;;21.70;3.25;;;;;;;-146.25;100.00;52477.69;2196934;26;31136;-71
2024/04/21 00:42:22;;;;;;;13.18;3.22;;;;;;;-146.25;100.00;52461.47;2197613;26;20010;-70
2024/04/21 00:43:24;;;;;;;11.80;2.78;;;;;;;-146.25;100.00;52441.19;2196732;27;35527;-70
2024/04/21 00:44:26;;;;;;;18.30;3.00;;;;;;;-146.25;100.00;52429.03;2197179;26;37722;-69
2024/04/21 00:45:28;;;;;;;16.95;2.60;;;;;;;-146.25;100.00;52463.50;2196693;26;34698;-71
2024/04/21 00:46:38;;;;;;;12.82;2.55;;;;;;;-146.25;100.00;52453.34;2197072;26;29814;-70
2024/04/21 00:47:42;;;;;;;15.98;2.50;;;;;;;-146.25;100.00;52451.31;2196442;26;20061;-71
2024/04/21 00:48:44;;;;;;;23.08;3.45;;;;;;;-146.25;100.00;52429.03;2183375;27;35563;-70
2024/04/21 00:49:47;;;;;;;14.38;2.75;;;;;;;-146.25;100.00;52455.38;2195994;27;34874;-71
2024/04/21 00:50:53;;;;;;;19.10;2.95;;;;;;;-146.25;100.00;52481.75;2195975;27;37254;-71
2024/04/21 00:51:56;;;;;;;15.32;3.13;;;;;;;-146.25;100.00;52453.34;2196354;26;20988;-71
2024/04/21 00:52:58;;;;;;;14.60;3.38;;;;;;;-146.25;100.00;52439.16;2196076;27;33253;-70
2024/04/21 00:54:00;;;;;;;13.38;3.28;;;;;;;-146.25;100.00;52457.41;2196218;27;28705;-71
2024/04/21 00:55:04;;;;;;;19.23;3.70;;;;;;;-146.25;100.00;52485.81;2197466;26;20156;-70
2024/04/21 00:56:07;;;;;;;12.90;3.58;;;;;;;-146.25;100.00;52422.94;2196930;27;30267;-71
2024/04/21 00:57:09;;;;;;;18.63;3.83;;;;;;;-146.25;100.00;52427.00;2196950;27;34277;-71
2024/04/21 00:58:13;;;;;;;11.32;2.78;;;;;;;-146.25;100.00;52465.53;2196032;26;33135;-71
2024/04/21 00:59:17;;;;;;;17.30;3.58;;;;;;;-146.25;100.00;52420.91;2195892;27;35852;-71
2024/04/21 01:00:20;;;;;;;12.38;3.17;;;;;;;-146.25;100.00;52439.16;2196016;26;34394;-72
2024/04/21 01:01:22;;;;;;;8.32;2.78;;;;;;;-146.25;100.00;52445.25;2196090;27;35574;-71
2024/04/21 01:02:24;;;;;;;12.20;3.47;;;;;;;-146.25;100.00;52431.06;2196887;27;35239;-71
2024/04/21 01:03:26;;;;;;;11.65;3.25;;;;;;;-146.25;100.00;52441.19;2196100;27;32686;-72
2024/04/21 01:04:31;;;;;;;13.27;3.20;;;;;;;-146.25;100.00;52461.47;2196715;27;20009;-71
2024/04/21 01:05:33;;;;;;;13.90;2.88;;;;;;;-146.25;100.00;52441.19;2195917;27;38114;-71
2024/04/21 01:06:35;;;;;;;13.55;3.17;;;;;;;-146.25;100.00;52459.44;2196855;26;31710;-71
2024/04/21 01:07:37;;;;;;;12.73;3.75;;;;;;;-146.25;100.00;52449.31;2196425;26;34184;-71
2024/04/21 01:08:39;;;;;;;13.63;3.45;;;;;;;-146.25;100.00;52477.69;2196724;26;36011;-72
2024/04/21 01:09:41;;;;;;;14.27;3.83;;;;;;;-146.25;100.00;52489.84;2196598;27;33465;-72
2024/04/21 01:10:43;;;;;;;13.82;3.38;;;;;;;-146.25;100.00;52437.13;2196819;26;33248;-72
2024/04/21 01:11:47;;;;;;;11.80;3.63;;;;;;;-146.25;100.00;52427.00;2196708;26;36145;-72
2024/04/21 01:12:49;;;;;;;14.23;3.33;;;;;;;-146.25;100.00;52441.19;2196694;27;20006;-73
2024/04/21 01:13:51;;;;;;;11.98;3.22;;;;;;;-146.25;100.00;52429.03;2196007;27;33994;-72
2024/04/21 01:14:53;;;;;;;11.40;3.65;;;;;;;-146.25;100.00;52435.09;2196617;27;34700;-73
2024/04/21 01:15:55;;;;;;;11.05;2.65;;;;;;;-146.25;100.00;52437.13;2197370;27;30482;-74
2024/04/21 01:16:57;;;;;;;15.98;2.95;;;;;;;-146.25;100.00;52445.25;2196606;26;20017;-73
2024/04/21 01:17:59;;;;;;;14.40;2.67;;;;;;;-146.25;100.00;52457.41;2195822;27;36036;-73
2024/04/21 01:19:01;;;;;;;13.77;2.40;;;;;;;-146.25;100.00;52435.09;2196923;27;27900;-73
2024/04/21 01:20:04;;;;;;;12.20;2.47;;;;;;;-146.25;100.00;52461.47;2196670;26;32406;-73
2024/04/21 01:21:06;;;;;;;13.00;2.47;;;;;;;-146.25;100.00;52459.44;2196728;27;36148;-73
2024/04/21 01:22:08;;;;;;;10.13;1.88;;;;;;;-146.25;100.00;52433.06;2197373;27;20092;-73
2024/04/21 01:23:10;;;;;;;12.93;2.35;;;;;;;-146.25;100.00;52447.28;2196358;27;36461;-72
2024/04/21 01:24:12;;;;;;;9.50;1.50;;;;;;;-146.25;100.00;52463.50;2196735;27;35783;-72
2024/04/21 01:25:15;;;;;;;6.97;1.45;;;;;;;-146.25;100.00;52487.81;2197161;27;20006;-73
2024/04/21 01:26:17;;;;;;;12.50;1.73;;;;;;;-146.25;100.00;52431.06;2196806;27;33337;-73
2024/04/21 01:27:19;;;;;;;9.32;1.40;;;;;;;-146.25;100.00;52504.03;2196720;27;34473;-73
2024/04/21 01:28:21;;;;;;;9.93;2.00;;;;;;;-146.25;100.00;52429.03;2196876;27;34169;-73
2024/04/21 01:29:23;;;;;;;11.85;1.65;;;;;;;-146.25;100.00;52475.66;2196791;26;32058;-74
2024/04/21 01:30:27;;;;;;;12.70;1.50;;;;;;;-146.25;100.00;52441.19;2196516;26;36761;-71
2024/04/21 01:31:29;;;;;;;13.52;1.77;;;;;;;-146.25;100.00;52467.56;2196788;27;34703;-74
2024/04/21 01:32:31;;;;;;;9.88;1.65;;;;;;;-146.25;100.00;52424.97;2196661;27;35489;-72
2024/04/21 01:33:33;;;;;;;14.48;1.70;;;;;;;-146.25;100.00;52461.47;2196650;27;36394;-73
2024/04/21 01:34:35;;;;;;;8.68;1.50;;;;;;;-146.25;100.00;52473.63;2196697;26;31184;-72
2024/04/21 01:35:37;;;;;;;11.18;1.50;;;;;;;-146.25;100.00;52477.69;2196505;27;35152;-73
2024/04/21 01:36:38;;;;;;;12.73;1.58;;;;;;;-146.25;100.00;52447.28;2196481;26;38001;-73
2024/04/21 01:37:40;;;;;;;13.00;1.90;;;;;;;-146.25;100.00;52481.75;2196689;27;35333;-73
2024/04/21 01:38:42;;;;;;;9.60;1.30;;;;;;;-146.25;100.00;52431.06;2196713;26;33928;-72
2024/04/21 01:39:44;;;;;;;10.25;1.52;;;;;;;-146.25;100.00;52441.19;2196681;27;32268;-73
2024/04/21 01:40:46;;;;;;;7.97;1.25;;;;;;;-146.25;100.00;52441.19;2196613;27;35371;-72
2024/04/21 01:41:48;;;;;;;4.88;1.20;;;;;;;-146.25;100.00;52439.16;2195630;27;36640;-73
2024/04/21 01:42:50;;;;;;;7.50;1.15;;;;;;;-146.25;100.00;52441.19;2195993;27;32492;-71
2024/04/21 01:43:52;;;;;;;8.50;1.33;;;;;;;-146.25;100.00;52465.53;2196661;27;32415;-73
2024/04/21 01:44:56;;;;;;;7.57;1.10;;;;;;;-146.25;100.00;52457.41;2196616;26;36508;-73
2024/04/21 01:45:57;;;;;;;10.85;1.35;;;;;;;-146.25;100.00;52453.34;2195822;27;32017;-74
2024/04/21 01:46:59;;;;;;;7.95;1.20;;;;;;;-146.25;100.00;52453.34;2195871;27;35142;-73
2024/04/21 01:48:02;;;;;;;7.38;0.98;;;;;;;-146.25;100.00;52473.63;2196668;26;32836;-73
2024/04/21 01:49:04;;;;;;;6.00;0.80;;;;;;;-146.25;100.00;52479.72;2196579;26;32984;-74
2024/04/21 01:50:07;;;;;;;15.13;1.80;;;;;;;-146.25;100.00;52463.50;2196514;26;34009;-73
2024/04/21 01:51:08;;;;;;;9.90;1.20;;;;;;;-146.25;100.00;52477.69;2196497;27;36594;-74
2024/04/21 01:52:10;;;;;;;12.52;1.35;;;;;;;-146.25;100.00;52477.69;2196668;27;35056;-72
2024/04/21 01:53:12;;;;;;;7.10;1.02;;;;;;;-146.25;100.00;52469.56;2196450;27;33462;-73
2024/04/21 01:54:14;;;;;;;7.57;1.70;;;;;;;-146.25;100.00;52463.50;2196549;26;37329;-73
2024/04/21 01:55:16;;;;;;;8.23;1.30;;;;;;;-146.25;100.00;52469.56;2196612;27;34751;-72
2024/04/21 01:56:25;;;;;;;7.57;1.40;;;;;;;-146.25;100.00;52437.13;2197466;27;20205;-73
2024/04/21 01:57:27;;;;;;;5.60;1.00;;;;;;;-146.25;100.00;52435.09;2196473;27;36803;-73
2024/04/21 01:58:29;;;;;;;12.25;1.35;;;;;;;-146.25;100.00;52471.59;2197317;26;20034;-72
2024/04/21 01:59:31;;;;;;;3.95;1.05;;;;;;;-146.25;100.00;52473.63;2196955;27;36890;-73
2024/04/21 02:00:35;;;;;;;15.10;1.50;;;;;;;-146.25;100.00;52445.25;2195189;26;35163;-73
2024/04/21 02:01:37;;;;;;;7.95;1.50;;;;;;;-146.25;100.00;52422.94;2196775;26;29622;-72
2024/04/21 02:02:39;;;;;;;4.53;1.35;;;;;;;-146.25;100.00;52441.19;2196634;26;32949;-72
2024/04/21 02:03:41;;;;;;;11.05;1.67;;;;;;;-146.25;100.00;52433.06;2196543;26;20009;-72
2024/04/21 02:04:43;;;;;;;9.00;1.35;;;;;;;-146.25;100.00;52477.69;2196434;26;35721;-73
2024/04/21 02:05:47;;;;;;;3.55;1.25;;;;;;;-146.25;100.00;52461.47;2196438;27;34625;-71
2024/04/21 02:06:50;;;;;;;9.88;1.80;;;;;;;-146.25;100.00;52457.41;2182511;27;31090;-73
2024/04/21 02:07:52;;;;;;;7.07;1.42;;;;;;;-146.25;100.00;52451.31;2181968;27;36258;-73
2024/04/21 02:08:54;;;;;;;12.55;1.80;;;;;;;-146.25;100.00;52437.13;2182579;27;32665;-74
2024/04/21 02:09:58;;;;;;;10.43;1.70;;;;;;;-146.25;100.00;52461.47;2182285;27;34569;-73
2024/04/21 02:11:01;;;;;;;9.15;1.55;;;;;;;-146.25;100.00;52441.19;2182285;27;36178;-73
2024/04/21 02:12:04;;;;;;;6.82;1.30;;;;;;;-146.25;100.00;52408.75;2182703;27;32964;-73
2024/04/21 02:13:06;;;;;;;8.90;1.38;;;;;;;-146.25;100.00;52437.13;2182357;27;34676;-72
2024/04/21 02:14:08;;;;;;;3.95;1.02;;;;;;;-146.25;100.00;52418.88;2182359;27;35666;-72
2024/04/21 02:15:10;;;;;;;7.53;1.15;;;;;;;-146.25;100.00;52489.84;2182319;27;33311;-72
2024/04/21 02:16:12;;;;;;;7.95;1.52;;;;;;;-146.25;100.00;52485.81;2182317;27;37124;-72
2024/04/21 02:17:16;;;;;;;6.35;0.98;;;;;;;-146.25;100.00;52469.56;2182501;27;31179;-73
2024/04/21 02:18:18;;;;;;;8.68;1.35;;;;;;;-146.25;100.00;52416.84;2181489;27;32500;-73
2024/04/21 02:19:22;;;;;;;5.20;1.20;;;;;;;-146.25;100.00;52445.25;2181503;27;33894;-73
2024/04/21 02:20:27;;;;;;;4.85;0.90;;;;;;;-146.25;100.00;52439.16;2183022;27;20015;-73
2024/04/21 02:21:29;;;;;;;8.55;1.15;;;;;;;-146.25;100.00;52441.19;2182260;27;36101;-73
2024/04/21 02:22:34;;;;;;;5.60;1.27;;;;;;;-146.25;100.00;52465.53;2182862;27;33421;-73
2024/04/21 02:23:36;;;;;;;4.47;1.23;;;;;;;-146.25;100.00;52451.31;2181255;27;35326;-74
2024/04/21 02:24:43;;;;;;;6.28;1.23;;;;;;;-146.25;100.00;52461.47;2181226;27;38899;-73
2024/04/21 02:25:46;;;;;;;6.82;1.80;;;;;;;-146.25;100.00;52463.50;2182445;27;20125;-73
2024/04/21 02:26:47;;;;;;;12.45;1.60;;;;;;;-146.25;100.00;52487.81;2181493;27;37241;-73
2024/04/21 02:27:49;;;;;;;8.50;1.58;;;;;;;-146.25;100.00;52427.00;2182323;27;28333;-73
2024/04/21 02:28:51;;;;;;;9.82;1.30;;;;;;;-146.25;100.00;52453.34;2182652;27;20140;-72
2024/04/21 02:29:53;;;;;;;6.57;1.25;;;;;;;-146.25;100.00;52455.38;2181697;27;36002;-73
2024/04/21 02:30:55;;;;;;;4.75;1.17;;;;;;;-146.25;100.00;52433.06;2181900;27;31117;-73
2024/04/21 02:31:57;;;;;;;9.55;1.52;;;;;;;-146.25;100.00;52485.81;2182865;27;20025;-73
2024/04/21 02:32:59;;;;;;;8.82;1.50;;;;;;;-146.25;100.00;52491.88;2182386;27;38087;-73
2024/04/21 02:34:01;;;;;;;7.32;1.65;;;;;;;-146.25;100.00;52439.16;2183194;27;20011;-73
2024/04/21 02:35:05;;;;;;;8.40;1.40;;;;;;;-146.25;100.00;52471.59;2182057;27;36617;-73
2024/04/21 02:36:07;;;;;;;9.48;1.55;;;;;;;-146.25;100.00;52487.81;2187207;26;35348;-73
2024/04/21 02:37:09;;;;;;;6.53;1.23;;;;;;;-146.25;100.00;52416.84;2196543;26;32809;-73
2024/04/21 02:38:12;;;;;;;7.60;1.40;;;;;;;-146.25;100.00;52433.06;2196755;26;23998;-72
2024/04/21 02:39:14;;;;;;;5.20;1.20;;;;;;;-146.25;100.00;52455.38;2195623;27;32585;-72
2024/04/21 02:40:15;;;;;;;6.13;1.13;;;;;;;-146.25;100.00;52459.44;2195669;27;35773;-73
2024/04/21 02:41:18;;;;;;;8.32;1.20;;;;;;;-146.25;100.00;52441.19;2196485;27;34160;-73
2024/04/21 02:42:20;;;;;;;8.55;1.13;;;;;;;-146.25;100.00;52455.38;2196716;27;32243;-73
2024/04/21 02:43:22;;;;;;;9.02;1.15;;;;;;;-146.25;100.00;52463.50;2196518;26;30511;-72
2024/04/21 02:44:24;;;;;;;6.63;1.30;;;;;;;-146.25;100.00;52481.75;2196349;26;37542;-72
2024/04/21 02:45:26;;;;;;;9.60;1.20;;;;;;;-146.25;100.00;52459.44;2195887;26;31710;-72
2024/04/21 02:46:28;;;;;;;10.93;1.52;;;;;;;-146.25;100.00;52469.56;2196190;26;31128;-72
2024/04/21 02:47:30;;;;;;;4.78;1.20;;;;;;;-146.25;100.00;52427.00;2195973;26;35360;-72
2024/04/21 02:48:32;;;;;;;8.80;1.20;;;;;;;-146.25;100.00;52420.91;2196447;27;31882;-72
2024/04/21 02:49:34;;;;;;;6.75;1.38;;;;;;;-146.25;100.00;52449.31;2196430;27;32838;-73
2024/04/21 02:50:37;;;;;;;4.38;1.17;;;;;;;-146.25;100.00;52489.84;2196524;26;29459;-72
2024/04/21 02:51:38;;;;;;;7.43;1.27;;;;;;;-146.25;100.00;52475.66;2197017;27;20025;-72
2024/04/21 02:52:40;;;;;;;8.75;1.50;;;;;;;-146.25;100.00;52485.81;2196695;27;24034;-72
2024/04/21 02:53:42;;;;;;;6.88;1.67;;;;;;;-146.25;100.00;52453.34;2196147;26;32103;-72
2024/04/21 02:54:44;;;;;;;4.82;2.38;;;;;;;-146.25;100.00;52467.56;2196284;27;34903;-72
2024/04/21 02:55:46;;;;;;;11.57;2.28;;;;;;;-146.25;100.00;52439.16;2196342;27;34867;-71
2024/04/21 02:56:48;;;;;;;5.97;1.85;;;;;;;-146.25;100.00;52427.00;2197019;27;20010;-73
2024/04/21 02:57:50;;;;;;;8.63;2.28;;;;;;;-146.25;100.00;52487.81;2196111;26;39029;-72
2024/04/21 02:58:52;;;;;;;10.20;2.50;;;;;;;-146.25;100.00;52445.25;2196237;27;35390;-72
2024/04/21 02:59:55;;;;;;;9.80;2.00;;;;;;;-146.25;100.00;52457.41;2196327;27;32434;-72
2024/04/21 03:01:03;;;;;;;7.15;2.08;;;;;;;-146.25;100.00;52449.31;2196216;27;34533;-72
2024/04/21 03:02:07;;;;;;;5.65;1.60;;;;;;;-146.25;100.00;52443.22;2197034;27;20006;-72
2024/04/21 03:03:09;;;;;;;10.05;2.03;;;;;;;-146.25;100.00;52512.16;2196306;27;33911;-73
2024/04/21 03:04:15;;;;;;;9.40;1.77;;;;;;;-146.25;100.00;52435.09;2196210;26;32356;-71
2024/04/21 03:05:17;;;;;;;8.02;2.38;;;;;;;-146.25;100.00;52485.81;2196915;27;20002;-73
2024/04/21 03:06:19;;;;;;;6.30;1.67;;;;;;;-146.25;100.00;52467.56;2196520;26;36148;-73
2024/04/21 03:07:20;;;;;;;9.00;2.40;;;;;;;-146.25;100.00;52471.59;2196134;27;35344;-73
2024/04/21 03:08:24;;;;;;;7.07;2.15;;;;;;;-146.25;100.00;52445.25;2195796;26;32628;-73
2024/04/21 03:09:26;;;;;;;9.07;1.73;;;;;;;-146.25;100.00;52489.84;2196167;27;35319;-73
2024/04/21 03:10:28;;;;;;;9.15;3.50;;;;;;;-146.25;100.00;52437.13;2196230;27;34083;-73
2024/04/21 03:11:32;;;;;;;11.50;3.03;;;;;;;-146.25;100.00;52451.31;2195976;27;37094;-73
2024/04/21 03:12:34;;;;;;;10.55;4.35;;;;;;;-146.25;100.00;52445.25;2196177;26;34687;-74
2024/04/21 03:13:36;;;;;;;13.57;5.28;;;;;;;-146.25;100.00;52481.75;2196400;27;33739;-73
2024/04/21 03:14:40;;;;;;;7.40;2.40;;;;;;;-146.25;100.00;52439.16;2195244;26;35176;-73
2024/04/21 03:15:45;;;;;;;7.75;3.17;;;;;;;-146.25;100.00;52429.03;2196488;26;33770;-74
2024/04/21 03:16:47;;;;;;;9.82;2.97;;;;;;;-146.25;100.00;52461.47;2197204;27;32861;-73
2024/04/21 03:17:52;;;;;;;8.23;2.42;;;;;;;-146.25;100.00;52424.97;2197225;26;35416;-74
2024/04/21 03:18:54;;;;;;;8.63;3.03;;;;;;;-146.25;100.00;52445.25;2197155;26;33083;-73
2024/04/21 03:19:56;;;;;;;6.45;2.30;;;;;;;-146.25;100.00;52447.28;2197039;27;35676;-72
2024/04/21 03:20:59;;;;;;;9.00;2.22;;;;;;;-146.25;100.00;52445.25;2197420;26;31176;-73
2024/04/21 03:22:02;;;;;;;7.72;3.00;;;;;;;-146.25;100.00;52461.47;2197220;26;35834;-72
2024/04/21 03:23:04;;;;;;;8.75;3.40;;;;;;;-146.25;100.00;52451.31;2198058;27;20009;-72
2024/04/21 03:24:06;;;;;;;16.00;7.47;;;;;;;-146.25;100.00;52467.56;2196305;26;32600;-73
2024/04/21 03:25:08;;;;;;;14.15;7.53;;;;;;;-146.25;100.00;52455.38;2196285;26;31521;-73
2024/04/21 03:26:09;;;;;;;18.23;8.25;;;;;;;-146.25;100.00;52455.38;2197999;26;20021;-74
2024/04/21 03:27:11;;;;;;;14.18;6.93;;;;;;;-146.25;100.00;52449.31;2197184;27;35238;-72
2024/04/21 03:28:13;;;;;;;14.07;6.72;;;;;;;-146.25;100.00;52475.66;2197232;26;32749;-72
2024/04/21 03:29:15;;;;;;;13.15;6.32;;;;;;;-146.25;100.00;52435.09;2198239;27;21013;-72
2024/04/21 03:30:17;;;;;;;10.43;5.03;;;;;;;-146.25;100.00;52469.56;2196344;27;36807;-73
2024/04/21 03:31:21;;;;;;;6.70;3.40;;;;;;;-146.25;100.00;52459.44;2196957;26;20920;-72
2024/04/21 03:32:23;;;;;;;9.38;3.40;;;;;;;-146.25;100.00;52457.41;2197489;26;28850;-73
2024/04/21 03:33:28;;;;;;;8.27;3.60;;;;;;;-146.25;100.00;52465.53;2197696;26;20022;-73
2024/04/21 03:34:30;;;;;;;11.35;3.53;;;;;;;-146.25;100.00;52461.47;2197663;27;25218;-73
2024/04/21 03:35:33;;;;;;;8.35;2.63;;;;;;;-146.25;100.00;52514.19;2196937;26;36032;-72
2024/04/21 03:36:37;;;;;;;8.25;3.38;;;;;;;-146.25;100.00;52441.19;2197103;26;33931;-72
2024/04/21 03:37:39;;;;;;;6.05;2.90;;;;;;;-146.25;100.00;52467.56;2197100;26;31229;-72
2024/04/21 03:38:41;;;;;;;9.43;3.40;;;;;;;-146.25;100.00;52469.56;2195767;26;34615;-73
2024/04/21 03:39:43;;;;;;;7.57;2.72;;;;;;;-146.25;100.00;52445.25;2196289;26;34025;-73
2024/04/21 03:40:47;;;;;;;4.93;2.03;;;;;;;-146.25;100.00;52429.03;2197092;26;35859;-73
2024/04/21 03:41:49;;;;;;;6.68;2.00;;;;;;;-146.25;100.00;52487.81;2197043;27;32519;-73
2024/04/21 03:42:51;;;;;;;7.45;2.47;;;;;;;-146.25;100.00;52439.16;2197666;26;20945;-71
2024/04/21 03:43:53;;;;;;;4.03;2.22;;;;;;;-146.25;100.00;52467.56;2196979;26;36182;-73
2024/04/21 03:44:55;;;;;;;7.40;2.78;;;;;;;-146.25;100.00;52465.53;2196013;27;36441;-73
2024/04/21 03:45:57;;;;;;;7.00;2.47;;;;;;;-146.25;100.00;52473.63;2196223;26;32163;-73
2024/04/21 03:46:59;;;;;;;5.55;2.38;;;;;;;-146.25;100.00;52437.13;2196908;27;38816;-73
2024/04/21 03:48:01;;;;;;;5.15;2.10;;;;;;;-146.25;100.00;52471.59;2196965;26;37031;-73
2024/04/21 03:49:03;;;;;;;5.05;2.40;;;;;;;-146.25;100.00;52475.66;2197084;26;33137;-73
2024/04/21 03:50:06;;;;;;;4.75;1.80;;;;;;;-146.25;100.00;52479.72;2196881;26;35696;-73
2024/04/21 03:51:08;;;;;;;5.47;1.73;;;;;;;-146.25;100.00;52420.91;2196674;26;33076;-73
2024/04/21 03:52:09;;;;;;;6.00;1.88;;;;;;;-146.25;100.00;52451.31;2195491;26;33457;-74
2024/04/21 03:53:18;;;;;;;5.43;1.73;;;;;;;-146.25;100.00;52491.88;2196661;27;37352;-72
2024/04/21 03:54:20;;;;;;;7.15;1.20;;;;;;;-146.25;100.00;52493.91;2197051;27;35395;-73
2024/04/21 03:55:21;;;;;;;4.22;1.50;;;;;;;-146.25;100.00;52408.75;2196075;27;33975;-74
2024/04/21 03:56:26;;;;;;;4.00;1.45;;;;;;;-146.25;100.00;52424.97;2196907;27;20014;-73
2024/04/21 03:57:30;;;;;;;5.82;1.85;;;;;;;-146.25;100.00;52453.34;2197065;26;33369;-73
2024/04/21 03:58:32;;;;;;;6.28;1.77;;;;;;;-146.25;100.00;52447.28;2197069;27;34934;-72
2024/04/21 03:59:35;;;;;;;4.00;1.40;;;;;;;-146.25;100.00;52471.59;2197640;26;20009;-73
2024/04/21 04:00:37;;;;;;;4.15;1.40;;;;;;;-146.25;100.00;52473.63;2196878;26;34510;-73
2024/04/21 04:01:39;;;;;;;5.40;1.85;;;;;;;-146.25;100.00;52485.81;2197286;27;32908;-73
2024/04/21 04:02:41;;;;;;;5.90;1.65;;;;;;;-146.25;100.00;52463.50;2196907;27;35484;-73
2024/04/21 04:03:43;;;;;;;2.85;1.50;;;;;;;-146.25;100.00;52479.72;2197114;27;36861;-72
2024/04/21 04:04:45;;;;;;;4.32;1.42;;;;;;;-146.25;100.00;52485.81;2197706;27;20006;-74
2024/04/21 04:05:48;;;;;;;7.20;1.90;;;;;;;-146.25;100.00;52451.31;2196843;26;35151;-73
2024/04/21 04:06:52;;;;;;;5.32;1.70;;;;;;;-146.25;100.00;52475.66;2197221;27;31586;-74
2024/04/21 04:07:54;;;;;;;4.78;1.75;;;;;;;-146.25;100.00;52435.09;2197693;26;20006;-73
2024/04/21 04:08:56;;;;;;;6.15;1.83;;;;;;;-146.25;100.00;52439.16;2195695;26;39565;-73
2024/04/21 04:09:58;;;;;;;5.90;2.30;;;;;;;-146.25;100.00;52412.81;2196175;27;33438;-73
2024/04/21 04:11:00;;;;;;;4.38;2.00;;;;;;;-146.25;100.00;52457.41;2197065;26;35449;-73
2024/04/21 04:12:05;;;;;;;5.07;2.20;;;;;;;-146.25;100.00;52453.34;2196869;26;36787;-73
2024/04/21 04:13:07;;;;;;;5.70;2.30;;;;;;;-146.25;100.00;52445.25;2197470;27;31517;-73
2024/04/21 04:14:09;;;;;;;6.32;2.28;;;;;;;-146.25;100.00;52445.25;2197119;27;33022;-73
2024/04/21 04:15:12;;;;;;;5.43;2.17;;;;;;;-146.25;100.00;52433.06;2196857;26;37000;-71
2024/04/21 04:16:13;;;;;;;4.55;2.10;;;;;;;-146.25;100.00;52457.41;2196045;26;34499;-74
2024/04/21 04:17:15;;;;;;;5.65;1.83;;;;;;;-146.25;100.00;52447.28;2182116;27;33363;-74
2024/04/21 04:18:18;;;;;;;4.50;2.00;;;;;;;-146.25;100.00;52437.13;2196035;27;38352;-74
2024/04/21 04:19:20;;;;;;;5.55;1.95;;;;;;;-146.25;100.00;52449.31;2197521;27;20954;-73
2024/04/21 04:20:22;;;;;;;6.38;1.85;;;;;;;-146.25;100.00;52433.06;2197058;26;36241;-74
2024/04/21 04:21:24;;;;;;;5.32;1.42;;;;;;;-146.25;100.00;52465.53;2196897;26;35845;-74
2024/04/21 04:22:26;;;;;;;4.28;1.63;;;;;;;-146.25;100.00;52465.53;2197002;26;32480;-73
2024/04/21 04:23:27;;;;;;;3.83;1.75;;;;;;;-146.25;100.00;52427.00;2196496;27;38149;-73
2024/04/21 04:24:29;;;;;;;6.45;1.88;;;;;;;-146.25;100.00;52457.41;2196853;26;33386;-73
2024/04/21 04:25:31;;;;;;;5.03;2.17;;;;;;;-146.25;100.00;52443.22;2197006;26;32081;-72
2024/04/21 04:26:33;;;;;;;5.57;1.73;;;;;;;-146.25;100.00;52473.63;2196276;26;35616;-73
2024/04/21 04:27:38;;;;;;;7.00;2.22;;;;;;;-146.25;100.00;52465.53;2196764;26;33310;-73
2024/04/21 04:28:40;;;;;;;4.68;1.85;;;;;;;-146.25;100.00;52453.34;2197598;27;20187;-73
2024/04/21 04:29:42;;;;;;;4.40;1.73;;;;;;;-146.25;100.00;52406.72;2196802;26;33917;-74
2024/04/21 04:30:44;;;;;;;5.35;2.60;;;;;;;-146.25;100.00;52465.53;2196972;26;33230;-74
2024/04/21 04:31:48;;;;;;;6.68;2.45;;;;;;;-146.25;100.00;52485.81;2196709;27;20208;-73
2024/04/21 04:32:50;;;;;;;7.22;2.85;;;;;;;-146.25;100.00;52495.94;2196081;27;36381;-74
2024/04/21 04:33:52;;;;;;;6.25;3.03;;;;;;;-146.25;100.00;52420.91;2197602;26;20025;-73
2024/04/21 04:34:55;;;;;;;6.38;3.53;;;;;;;-146.25;100.00;52469.56;2195960;27;34921;-73
2024/04/21 04:35:56;;;;;;;6.32;3.60;;;;;;;-146.25;100.00;52429.03;2196282;26;27866;-73
2024/04/21 04:36:58;;;;;;;6.22;3.80;;;;;;;-146.25;100.00;52461.47;2182788;27;32257;-73
2024/04/21 04:38:00;;;;;;;8.05;4.10;;;;;;;-146.25;100.00;52477.69;2182549;27;37715;-73
2024/04/21 04:39:04;;;;;;;9.80;4.15;;;;;;;-146.25;100.00;52461.47;2182658;27;35000;-73
2024/04/21 04:40:07;;;;;;;7.78;4.80;;;;;;;-146.25;100.00;52465.53;2183276;27;20069;-73
2024/04/21 04:41:10;;;;;;;8.32;4.80;;;;;;;-146.25;100.00;52465.53;2182897;27;32346;-73
2024/04/21 04:42:12;;;;;;;7.70;4.53;;;;;;;-146.25;100.00;52459.44;2181935;27;31581;-73
2024/04/21 04:43:14;;;;;;;7.88;4.43;;;;;;;-146.25;100.00;52433.06;2182591;27;33247;-73